Time;durP1;ratioP1;P1;durP2;ratioP2;P2;SDS_P1;SDS_P2;PMS_P1;PMS_P2;Temp;Humidity;BMP_temperature;BMP_pressure;BME280_temperature;BME280_humidity;BME280_pressure;Samples;Min_cycle;Max_cycle;Signal;HPM_P1;HPM_P2
2023/02/23 06:54:09;;;;;;;28.80;19.88;;;;;;;;;;10525154;28;20164;-84
2023/02/23 06:59:10;;;;;;;;;;;;;;;;;;10540294;28;20029;-84
2023/02/23 07:04:11;;;;;;;15.57;11.50;;;;;;;;;;10536675;28;19896;-83
2023/02/23 07:09:12;;;;;;;21.33;15.60;;;;;;;;;;10536045;28;20517;-82
2023/02/23 07:14:14;;;;;;;25.60;18.92;;;;;;;;;;10518309;28;20025;-84
2023/02/23 07:19:15;;;;;;;36.63;25.58;;;;;;;;;;10540603;28;20009;-84
2023/02/23 07:24:16;;;;;;;;;;;;;;;;;;10521171;28;20112;-83
2023/02/23 07:29:18;;;;;;;36.00;27.60;;;;;;;;;;10515745;28;19980;-83
2023/02/23 07:34:19;;;;;;;36.50;26.50;;;;;;;;;;10514575;28;20507;-83
2023/02/23 07:39:24;;;;;;;26.83;20.33;;;;;;;;;;10514474;28;20098;-84
2023/02/23 07:44:31;;;;;;;19.75;14.80;;;;;;;;;;10517246;28;20170;-83
2023/02/23 07:49:32;;;;;;;24.88;18.45;;;;;;;;;;10516747;28;20086;-84
2023/02/23 07:54:33;;;;;;;19.77;15.45;;;;;;;;;;10515721;28;20020;-83
2023/02/23 07:59:35;;;;;;;24.58;18.80;;;;;;;;;;10515310;28;20036;-84
2023/02/23 08:04:45;;;;;;;22.70;17.75;;;;;;;;;;10484899;28;20106;-84
2023/02/23 08:09:47;;;;;;;30.20;22.45;;;;;;;;;;10471664;28;20090;-78
2023/02/23 08:14:48;;;;;;;24.40;18.05;;;;;;;;;;10468624;28;20036;-79
2023/02/23 08:19:49;;;;;;;24.35;18.67;;;;;;;;;;10470091;28;20099;-79
2023/02/23 08:24:50;;;;;;;25.25;18.60;;;;;;;;;;10469085;28;20028;-79
2023/02/23 08:29:54;;;;;;;25.23;18.67;;;;;;;;;;10469360;28;20036;-79
2023/02/23 08:34:56;;;;;;;22.60;17.42;;;;;;;;;;10464390;28;20487;-78
2023/02/23 08:39:59;;;;;;;21.60;16.77;;;;;;;;;;10462858;28;20104;-78
2023/02/23 08:45:00;;;;;;;22.90;18.05;;;;;;;;;;10463790;28;20115;-77
2023/02/23 08:50:01;;;;;;;30.45;22.67;;;;;;;;;;10462901;28;20114;-78
2023/02/23 08:55:02;;;;;;;34.33;26.00;;;;;;;;;;10463742;28;20092;-78
2023/02/23 09:00:12;;;;;;;40.33;31.52;;;;;;;;;;10463208;28;20123;-76
2023/02/23 09:05:14;;;;;;;54.03;42.17;;;;;;;;;;10461218;28;20079;-77
2023/02/23 09:10:18;;;;;;;46.75;36.90;;;;;;;;;;10462143;28;20545;-77
2023/02/23 09:15:19;;;;;;;43.53;35.42;;;;;;;;;;10462480;28;20052;-78
2023/02/23 09:20:25;;;;;;;39.47;31.42;;;;;;;;;;10462611;28;20092;-78
2023/02/23 09:25:28;;;;;;;36.55;28.27;;;;;;;;;;10462290;28;20048;-78
2023/02/23 09:30:29;;;;;;;33.42;27.17;;;;;;;;;;10462365;28;20082;-78
2023/02/23 09:35:30;;;;;;;25.02;20.98;;;;;;;;;;10461818;28;20036;-78
2023/02/23 09:40:38;;;;;;;24.75;19.33;;;;;;;;;;10463239;28;20025;-78
2023/02/23 09:45:57;;;;;;;22.80;18.23;;;;;;;;;;10461948;28;20560;-78
2023/02/23 09:50:59;;;;;;;27.35;20.38;;;;;;;;;;10461657;28;20043;-77
2023/02/23 09:56:02;;;;;;;20.27;15.50;;;;;;;;;;10461751;28;20032;-77
2023/02/23 10:01:09;;;;;;;30.88;22.00;;;;;;;;;;10462489;28;20124;-80
2023/02/23 10:06:13;;;;;;;20.92;16.30;;;;;;;;;;10460702;28;20032;-78
2023/02/23 10:11:14;;;;;;;24.60;19.05;;;;;;;;;;10458951;28;20433;-78
2023/02/23 10:16:22;;;;;;;23.67;16.83;;;;;;;;;;10459280;28;20044;-78
2023/02/23 10:21:32;;;;;;;23.58;17.23;;;;;;;;;;10460011;28;20044;-77
2023/02/23 10:26:56;;;;;;;20.30;14.97;;;;;;;;;;10457863;28;20025;-79
2023/02/23 10:32:02;;;;;;;25.40;18.90;;;;;;;;;;10461047;28;20057;-79
2023/02/23 10:37:05;;;;;;;18.88;13.75;;;;;;;;;;10460430;28;20036;-79
2023/02/23 10:42:12;;;;;;;19.10;14.10;;;;;;;;;;10461531;28;20029;-77
2023/02/23 10:47:20;;;;;;;19.48;14.32;;;;;;;;;;10464435;28;20018;-78
2023/02/23 10:52:24;;;;;;;20.67;15.75;;;;;;;;;;10463362;28;20048;-78
2023/02/23 10:57:26;;;;;;;16.88;12.65;;;;;;;;;;10462816;28;20112;-78
2023/02/23 11:02:29;;;;;;;14.40;10.85;;;;;;;;;;10462484;28;20025;-78
2023/02/23 11:07:31;;;;;;;20.30;15.02;;;;;;;;;;10461681;28;20071;-78
2023/02/23 11:12:37;;;;;;;15.35;11.10;;;;;;;;;;10465216;28;20025;-77
2023/02/23 11:17:38;;;;;;;12.40;9.98;;;;;;;;;;10482285;28;20009;-81
2023/02/23 11:22:41;;;;;;;14.35;11.30;;;;;;;;;;10499358;28;20096;-78
2023/02/23 11:27:45;;;;;;;16.38;11.30;;;;;;;;;;10477630;28;20040;-77
2023/02/23 11:32:50;;;;;;;14.18;10.85;;;;;;;;;;10484603;28;20044;-78
2023/02/23 11:37:51;;;;;;;15.27;11.77;;;;;;;;;;10487974;28;20033;-76
2023/02/23 11:42:53;;;;;;;27.73;19.17;;;;;;;;;;10479683;28;20194;-76
2023/02/23 11:47:57;;;;;;;21.55;16.17;;;;;;;;;;10482733;28;20084;-77
2023/02/23 11:53:06;;;;;;;18.15;12.32;;;;;;;;;;10485229;28;20059;-78
2023/02/23 11:58:18;;;;;;;20.05;14.50;;;;;;;;;;10482540;28;20029;-78
2023/02/23 12:03:22;;;;;;;18.13;13.65;;;;;;;;;;10475068;28;20033;-79
2023/02/23 12:08:34;;;;;;;15.50;12.07;;;;;;;;;;10474305;28;20021;-77
2023/02/23 12:13:38;;;;;;;12.85;10.00;;;;;;;;;;10474895;28;20111;-78
2023/02/23 12:18:42;;;;;;;13.77;10.13;;;;;;;;;;10471872;28;20033;-80
2023/02/23 12:23:45;;;;;;;14.35;11.27;;;;;;;;;;10469452;28;20120;-80
2023/02/23 12:28:57;;;;;;;15.50;11.77;;;;;;;;;;10469388;28;20025;-80
2023/02/23 12:34:10;;;;;;;16.95;12.35;;;;;;;;;;10468683;28;20107;-80
2023/02/23 12:39:17;;;;;;;11.63;8.30;;;;;;;;;;10469381;28;20035;-80
2023/02/23 12:44:29;;;;;;;14.52;11.30;;;;;;;;;;10472078;28;20164;-80
2023/02/23 12:49:30;;;;;;;17.50;13.60;;;;;;;;;;10468113;28;20048;-80
2023/02/23 12:54:31;;;;;;;16.60;11.60;;;;;;;;;;10468532;28;20032;-80
2023/02/23 12:59:52;;;;;;;12.98;9.85;;;;;;;;;;10467641;28;20028;-80
2023/02/23 13:05:11;;;;;;;10.68;8.45;;;;;;;;;;10467491;28;20025;-79
2023/02/23 13:10:19;;;;;;;7.80;6.60;;;;;;;;;;10472379;28;20502;-78
2023/02/23 13:15:43;;;;;;;11.30;8.52;;;;;;;;;;10467064;28;20083;-78
2023/02/23 13:20:51;;;;;;;9.32;7.50;;;;;;;;;;10461744;28;20041;-80
2023/02/23 13:26:14;;;;;;;11.77;7.93;;;;;;;;;;10463243;28;20025;-79
2023/02/23 13:31:24;;;;;;;11.77;8.50;;;;;;;;;;10466074;28;20052;-80
2023/02/23 13:36:26;;;;;;;9.30;7.20;;;;;;;;;;10465608;28;20091;-79
2023/02/23 13:41:28;;;;;;;14.25;10.35;;;;;;;;;;10462452;28;20514;-80
2023/02/23 13:46:45;;;;;;;9.75;7.70;;;;;;;;;;10465174;28;20017;-81
2023/02/23 13:51:53;;;;;;;21.80;16.38;;;;;;;;;;10468094;28;20041;-79
2023/02/23 13:57:00;;;;;;;9.15;6.88;;;;;;;;;;10465075;28;20112;-79
2023/02/23 14:02:05;;;;;;;10.07;7.95;;;;;;;;;;10461698;28;20067;-79
2023/02/23 14:07:09;;;;;;;16.88;12.27;;;;;;;;;;10462469;28;20411;-79
2023/02/23 14:12:12;;;;;;;12.82;9.38;;;;;;;;;;10460626;28;20036;-79
2023/02/23 14:17:19;;;;;;;12.48;9.25;;;;;;;;;;10463448;28;20094;-78
2023/02/23 14:22:20;;;;;;;16.08;12.80;;;;;;;;;;10457736;28;20033;-78
2023/02/23 14:27:45;;;;;;;13.77;10.15;;;;;;;;;;10457299;28;20021;-77
2023/02/23 14:32:47;;;;;;;15.63;11.30;;;;;;;;;;10458513;28;20040;-78
2023/02/23 14:37:55;;;;;;;18.83;12.90;;;;;;;;;;10460430;28;20025;-78
2023/02/23 14:42:57;;;;;;;10.93;8.02;;;;;;;;;;10463370;28;20074;-79
2023/02/23 14:48:02;;;;;;;8.50;6.35;;;;;;;;;;10464442;28;20027;-79
2023/02/23 14:53:04;;;;;;;12.40;8.85;;;;;;;;;;10459703;28;20498;-80
2023/02/23 14:58:20;;;;;;;12.75;8.73;;;;;;;;;;10463984;28;20128;-78
2023/02/23 15:03:21;;;;;;;9.60;7.00;;;;;;;;;;10460225;28;20025;-77
2023/02/23 15:08:24;;;;;;;9.00;6.68;;;;;;;;;;10460484;28;20044;-80
2023/02/23 15:13:31;;;;;;;10.43;7.07;;;;;;;;;;10479808;28;20052;-81
2023/02/23 15:18:40;;;;;;;17.05;11.95;;;;;;;;;;10486849;28;20394;-79
2023/02/23 15:23:43;;;;;;;12.20;7.88;;;;;;;;;;10473771;28;20097;-78
2023/02/23 15:28:46;;;;;;;14.95;8.95;;;;;;;;;;10472606;28;20021;-79
2023/02/23 15:33:49;;;;;;;15.43;10.80;;;;;;;;;;10471974;28;20503;-79
2023/02/23 15:38:51;;;;;;;8.95;6.88;;;;;;;;;;10471995;28;20520;-80
2023/02/23 15:43:55;;;;;;;9.68;6.75;;;;;;;;;;10473844;28;20021;-78
2023/02/23 15:48:59;;;;;;;22.88;15.27;;;;;;;;;;10470570;28;20099;-79
2023/02/23 15:54:02;;;;;;;8.02;5.45;;;;;;;;;;10466740;28;20084;-78
2023/02/23 15:59:06;;;;;;;10.32;7.05;;;;;;;;;;10468283;28;20075;-79
2023/02/23 16:04:13;;;;;;;11.73;6.72;;;;;;;;;;10469192;28;20083;-78
2023/02/23 16:09:23;;;;;;;15.00;7.82;;;;;;;;;;10472551;28;20028;-80
2023/02/23 16:14:28;;;;;;;12.35;7.82;;;;;;;;;;10472965;28;20025;-79
2023/02/23 16:19:30;;;;;;;8.63;5.55;;;;;;;;;;10475212;28;20089;-80
2023/02/23 16:24:31;;;;;;;9.15;6.28;;;;;;;;;;10473263;28;20112;-80
2023/02/23 16:29:40;;;;;;;9.65;6.28;;;;;;;;;;10473264;28;20107;-79
2023/02/23 16:34:49;;;;;;;12.13;7.70;;;;;;;;;;10472180;28;20132;-80
2023/02/23 16:39:50;;;;;;;10.05;5.28;;;;;;;;;;10472387;28;20040;-80
2023/02/23 16:44:51;;;;;;;10.00;6.47;;;;;;;;;;10474205;28;20085;-79
2023/02/23 16:49:52;;;;;;;9.68;6.10;;;;;;;;;;10472889;28;20040;-79
2023/02/23 16:54:53;;;;;;;11.80;8.30;;;;;;;;;;10472932;28;20087;-79
2023/02/23 16:59:56;;;;;;;10.02;7.07;;;;;;;;;;10478203;28;20091;-79
2023/02/23 17:04:57;;;;;;;6.80;5.30;;;;;;;;;;10471025;28;20021;-78
2023/02/23 17:09:58;;;;;;;6.00;4.53;;;;;;;;;;10469490;28;20060;-79
2023/02/23 17:14:59;;;;;;;10.45;6.88;;;;;;;;;;10471933;28;20234;-79
2023/02/23 17:20:00;;;;;;;10.00;6.40;;;;;;;;;;10468122;28;20072;-78
2023/02/23 17:25:01;;;;;;;9.63;5.90;;;;;;;;;;10465136;28;20028;-79
2023/02/23 17:30:03;;;;;;;13.27;8.85;;;;;;;;;;10471523;28;20058;-82
2023/02/23 17:35:05;;;;;;;8.93;6.22;;;;;;;;;;10478761;28;20017;-83
2023/02/23 17:40:07;;;;;;;10.40;7.15;;;;;;;;;;10476402;28;20005;-83
2023/02/23 17:45:09;;;;;;;8.45;5.93;;;;;;;;;;10480687;28;20088;-82
2023/02/23 17:50:10;;;;;;;8.57;6.00;;;;;;;;;;10483930;28;20072;-82
2023/02/23 17:55:11;;;;;;;9.30;6.00;;;;;;;;;;10484593;28;20494;-82
2023/02/23 18:00:14;;;;;;;10.23;7.35;;;;;;;;;;10482986;28;20060;-82
2023/02/23 18:05:15;;;;;;;12.68;8.50;;;;;;;;;;10479304;28;20124;-82
2023/02/23 18:10:16;;;;;;;20.77;12.98;;;;;;;;;;10479234;28;20040;-82
2023/02/23 18:15:19;;;;;;;13.45;9.00;;;;;;;;;;10479877;28;20056;-82
2023/02/23 18:20:20;;;;;;;10.13;6.63;;;;;;;;;;10486113;28;20101;-82
2023/02/23 18:25:24;;;;;;;10.07;6.82;;;;;;;;;;10478470;28;20479;-82
2023/02/23 18:30:26;;;;;;;12.98;8.48;;;;;;;;;;10474809;28;20463;-80
2023/02/23 18:35:27;;;;;;;8.07;6.05;;;;;;;;;;10473203;28;20034;-80
2023/02/23 18:40:28;;;;;;;11.00;7.50;;;;;;;;;;10473001;28;20127;-81
2023/02/23 18:45:29;;;;;;;12.20;8.18;;;;;;;;;;10473276;28;20021;-82
2023/02/23 18:50:30;;;;;;;9.68;6.47;;;;;;;;;;10470446;28;20052;-82
2023/02/23 18:55:31;;;;;;;9.55;6.82;;;;;;;;;;10467794;28;20020;-82
2023/02/23 19:00:38;;;;;;;13.80;8.60;;;;;;;;;;10469941;28;20071;-82
2023/02/23 19:05:44;;;;;;;11.38;8.23;;;;;;;;;;10469690;28;20026;-81
2023/02/23 19:10:45;;;;;;;8.60;6.72;;;;;;;;;;10466257;28;20100;-82
2023/02/23 19:15:47;;;;;;;11.55;6.65;;;;;;;;;;10498642;28;20013;-81
2023/02/23 19:21:00;;;;;;;8.00;5.22;;;;;;;;;;10505571;28;20021;-82
2023/02/23 19:26:02;;;;;;;9.23;6.65;;;;;;;;;;10490068;28;20039;-82
2023/02/23 19:31:08;;;;;;;11.35;8.13;;;;;;;;;;10478390;28;20025;-82
2023/02/23 19:36:10;;;;;;;8.85;5.53;;;;;;;;;;10478727;28;20032;-82
2023/02/23 19:41:13;;;;;;;14.05;9.57;;;;;;;;;;10476548;28;20123;-83
2023/02/23 19:46:16;;;;;;;8.60;5.95;;;;;;;;;;10476717;28;20059;-82
2023/02/23 19:51:17;;;;;;;8.75;5.88;;;;;;;;;;10475368;28;20086;-83
2023/02/23 19:56:18;;;;;;;8.18;5.82;;;;;;;;;;10474772;28;20242;-83
2023/02/23 20:01:19;;;;;;;13.15;8.55;;;;;;;;;;10483845;28;20049;-82
2023/02/23 20:06:22;;;;;;;8.13;5.68;;;;;;;;;;10483785;28;20029;-82
2023/02/23 20:11:23;;;;;;;17.15;11.93;;;;;;;;;;10484565;28;20025;-83
2023/02/23 20:16:28;;;;;;;6.45;4.70;;;;;;;;;;10482588;28;20021;-82
